createdAt,value
2022-09-15T00:01:32.751Z,4.95
2022-09-15T00:04:36.048Z,4.78
2022-09-15T00:07:40.752Z,4.07
2022-09-15T00:10:49.228Z,4.32
2022-09-15T00:13:53.383Z,3.40
2022-09-15T00:16:56.523Z,4.20
2022-09-15T00:19:59.660Z,4.43
2022-09-15T00:23:04.251Z,3.85
2022-09-15T00:26:08.882Z,5.25
2022-09-15T00:29:12.238Z,5.55
2022-09-15T00:32:15.328Z,4.15
2022-09-15T00:35:18.775Z,5.55
2022-09-15T00:38:23.340Z,6.30
2022-09-15T00:41:27.081Z,6.85
2022-09-15T00:44:58.640Z,6.13
2022-09-15T00:48:02.565Z,5.95
2022-09-15T00:51:08.479Z,5.45
2022-09-15T00:54:17.659Z,4.25
2022-09-15T00:57:25.832Z,5.25
2022-09-15T01:00:29.862Z,4.72
2022-09-15T01:03:35.519Z,5.00
2022-09-15T01:06:43.654Z,5.70
2022-09-15T01:09:53.706Z,6.25
2022-09-15T01:13:00.147Z,5.95
2022-09-15T01:16:11.360Z,5.28
2022-09-15T01:19:51.511Z,5.65
2022-09-15T01:23:09.346Z,5.65
2022-09-15T01:26:35.356Z,5.43
2022-09-15T01:30:04.242Z,5.90
2022-09-15T01:33:22.396Z,5.93
2022-09-15T01:36:34.284Z,5.57
2022-09-15T01:39:41.031Z,5.65
2022-09-15T01:42:46.463Z,6.43
2022-09-15T01:45:53.557Z,5.00
2022-09-15T01:49:00.562Z,3.90
2022-09-15T01:52:04.083Z,4.50
2022-09-15T01:55:13.888Z,4.38
2022-09-15T01:58:16.994Z,3.50
2022-09-15T02:01:29.746Z,4.82
2022-09-15T02:04:36.587Z,5.47
2022-09-15T02:07:47.760Z,5.40
2022-09-15T02:10:59.288Z,4.72
2022-09-15T02:14:10.495Z,4.88
2022-09-15T02:17:18.800Z,4.72
2022-09-15T02:20:31.666Z,5.53
2022-09-15T02:23:41.823Z,5.68
2022-09-15T02:26:47.111Z,5.45
2022-09-15T02:29:52.638Z,6.03
2022-09-15T02:33:02.742Z,6.22
2022-09-15T02:36:07.040Z,5.93
2022-09-15T02:39:14.180Z,6.00
2022-09-15T02:42:25.432Z,5.83
2022-09-15T02:45:31.036Z,5.95
2022-09-15T02:48:36.086Z,6.47
2022-09-15T02:51:39.168Z,7.03
2022-09-15T02:54:42.391Z,6.63
2022-09-15T02:57:45.472Z,7.57
2022-09-15T03:00:52.031Z,5.88
2022-09-15T03:03:56.887Z,5.25
2022-09-15T03:07:00.134Z,6.50
2022-09-15T03:10:03.202Z,8.48
2022-09-15T03:13:06.367Z,8.95
2022-09-15T03:16:10.424Z,6.57
2022-09-15T03:19:15.149Z,7.63
2022-09-15T03:22:18.717Z,6.05
2022-09-15T03:25:22.112Z,6.10
2022-09-15T03:28:25.326Z,5.03
2022-09-15T03:34:14.527Z,4.10
2022-09-15T03:37:18.040Z,4.47
2022-09-15T03:40:21.205Z,4.05
2022-09-15T03:43:24.632Z,2.92
2022-09-15T03:46:27.900Z,3.35
2022-09-15T03:49:32.614Z,3.88
2022-09-15T03:52:35.770Z,4.00
2022-09-15T03:55:39.074Z,3.42
2022-09-15T03:58:42.205Z,3.95
2022-09-15T04:01:45.798Z,3.78
2022-09-15T04:04:50.408Z,3.70
2022-09-15T04:07:53.558Z,4.20
2022-09-15T04:10:56.680Z,4.18
2022-09-15T04:13:59.856Z,3.05
2022-09-15T04:17:03.111Z,3.20
2022-09-15T04:20:09.061Z,2.67
2022-09-15T04:23:12.268Z,3.05
2022-09-15T04:26:22.163Z,3.22
2022-09-15T04:29:25.803Z,2.90
2022-09-15T04:32:30.277Z,3.53
2022-09-15T04:35:34.770Z,3.40
2022-09-15T04:38:38.744Z,3.88
2022-09-15T04:41:41.813Z,3.20
2022-09-15T04:44:44.989Z,3.00
2022-09-15T04:47:48.416Z,3.75
2022-09-15T04:50:53.230Z,3.63
2022-09-15T04:53:56.409Z,4.00
2022-09-15T04:56:59.560Z,3.65
2022-09-15T05:00:06.052Z,3.60
2022-09-15T05:03:09.305Z,3.60
2022-09-15T05:06:16.823Z,3.25
2022-09-15T05:09:19.923Z,4.30
2022-09-15T05:12:23.148Z,3.75
2022-09-15T05:15:26.606Z,4.13
2022-09-15T05:18:29.736Z,3.78
2022-09-15T05:21:35.104Z,3.65
2022-09-15T05:24:38.380Z,3.50
2022-09-15T05:27:41.585Z,3.35
2022-09-15T05:30:44.804Z,3.15
2022-09-15T05:33:49.415Z,3.67
2022-09-15T05:36:54.169Z,4.10
2022-09-15T05:39:59.562Z,4.28
2022-09-15T05:43:02.719Z,4.13
2022-09-15T05:46:07.560Z,3.60
2022-09-15T05:49:11.705Z,4.38
2022-09-15T05:52:16.308Z,3.85
2022-09-15T05:55:19.500Z,3.63
2022-09-15T05:58:23.366Z,3.85
2022-09-15T06:01:31.261Z,3.58
2022-09-15T06:04:34.782Z,3.22
2022-09-15T06:07:40.002Z,3.40
2022-09-15T06:10:43.710Z,3.10
2022-09-15T06:13:48.380Z,3.25
2022-09-15T06:16:51.442Z,2.95
2022-09-15T06:19:54.938Z,3.90
2022-09-15T06:23:01.441Z,4.18
2022-09-15T06:26:07.009Z,4.30
2022-09-15T06:29:13.251Z,5.00
2022-09-15T06:32:16.514Z,4.03
2022-09-15T06:35:19.934Z,5.07
2022-09-15T06:38:24.411Z,4.72
2022-09-15T06:41:47.074Z,4.43
2022-09-15T06:44:54.480Z,4.07
2022-09-15T06:48:20.120Z,4.60
2022-09-15T06:51:23.215Z,4.05
2022-09-15T06:54:27.880Z,4.78
2022-09-15T06:57:33.428Z,4.57
2022-09-15T07:00:36.550Z,4.68
2022-09-15T07:03:41.958Z,4.97
2022-09-15T07:06:45.997Z,5.10
2022-09-15T07:09:50.668Z,5.00
2022-09-15T07:12:54.093Z,4.18
2022-09-15T07:15:59.773Z,4.22
2022-09-15T07:19:03.874Z,2.42
2022-09-15T07:22:07.173Z,1.67
2022-09-15T07:25:11.859Z,1.60
2022-09-15T07:28:15.952Z,1.17
2022-09-15T07:31:21.940Z,1.30
2022-09-15T07:34:25.365Z,1.10
2022-09-15T07:37:28.866Z,1.10
2022-09-15T07:40:34.119Z,1.20
2022-09-15T07:43:37.494Z,1.00
2022-09-15T07:46:40.600Z,0.93
2022-09-15T07:49:43.857Z,0.80
2022-09-15T07:52:46.944Z,0.70
2022-09-15T07:55:54.743Z,0.60
2022-09-15T08:02:00.705Z,0.60
2022-09-15T08:05:04.878Z,0.60
2022-09-15T08:08:12.658Z,0.70
2022-09-15T08:11:22.005Z,0.60
2022-09-15T08:14:28.379Z,0.50
2022-09-15T08:17:32.429Z,0.50
2022-09-15T08:20:35.815Z,0.70
2022-09-15T08:23:39.312Z,0.50
2022-09-15T08:26:43.872Z,0.60
2022-09-15T08:29:47.066Z,0.60
2022-09-15T08:32:50.294Z,0.68
2022-09-15T08:35:53.457Z,0.50
2022-09-15T08:38:56.669Z,0.60
2022-09-15T08:42:03.425Z,0.40
2022-09-15T08:45:15.927Z,0.82
2022-09-15T08:48:26.785Z,0.70
2022-09-15T08:51:35.891Z,0.73
2022-09-15T08:54:39.963Z,0.90
2022-09-15T08:57:45.024Z,0.65
2022-09-15T09:00:51.757Z,0.50
2022-09-15T09:04:21.227Z,0.50
2022-09-15T09:07:45.205Z,0.70
2022-09-15T09:10:53.421Z,0.70
2022-09-15T09:14:07.590Z,0.80
2022-09-15T09:17:25.855Z,0.82
2022-09-15T09:20:44.293Z,1.45
2022-09-15T09:23:54.557Z,0.57
2022-09-15T09:26:58.051Z,0.75
2022-09-15T09:34:24.039Z,0.90
2022-09-15T09:37:27.936Z,0.75
2022-09-15T09:40:32.858Z,0.85
2022-09-15T09:43:36.205Z,0.90
2022-09-15T09:46:39.498Z,0.77
2022-09-15T09:49:47.901Z,1.08
2022-09-15T09:52:51.113Z,0.95
2022-09-15T09:55:55.106Z,1.00
2022-09-15T09:58:58.317Z,1.45
2022-09-15T10:02:24.733Z,0.90
2022-09-15T10:05:29.268Z,0.98
2022-09-15T10:08:33.077Z,1.40
2022-09-15T10:11:46.671Z,0.85
2022-09-15T10:14:53.048Z,0.88
2022-09-15T10:17:57.763Z,0.90
2022-09-15T10:21:04.498Z,0.85
2022-09-15T10:24:31.317Z,0.82
2022-09-15T10:27:36.880Z,0.95
2022-09-15T10:30:40.730Z,0.93
2022-09-15T10:33:45.558Z,0.60
2022-09-15T10:36:50.614Z,0.65
2022-09-15T10:39:55.832Z,0.95
2022-09-15T10:43:06.870Z,0.90
2022-09-15T10:46:14.742Z,0.70
2022-09-15T10:49:33.227Z,1.10
2022-09-15T10:52:50.298Z,1.00
2022-09-15T10:56:03.821Z,1.17
2022-09-15T10:59:27.575Z,1.20
2022-09-15T11:03:09.718Z,1.40
2022-09-15T11:06:23.163Z,1.30
2022-09-15T11:09:34.624Z,1.48
2022-09-15T11:12:54.661Z,1.70
2022-09-15T11:16:09.124Z,1.95
2022-09-15T11:19:27.591Z,2.58
2022-09-15T11:25:43.643Z,2.30
2022-09-15T11:28:53.733Z,3.00
2022-09-15T11:32:04.152Z,3.63
2022-09-15T11:35:29.912Z,3.28
2022-09-15T11:38:42.881Z,3.20
2022-09-15T11:41:56.317Z,3.60
2022-09-15T11:45:01.595Z,3.78
2022-09-15T11:48:13.592Z,4.72
2022-09-15T11:51:19.980Z,3.90
2022-09-15T11:54:31.568Z,4.50
2022-09-15T11:57:43.988Z,5.32
2022-09-15T12:00:55.553Z,3.97
2022-09-15T12:04:02.422Z,4.03
2022-09-15T12:07:13.717Z,3.50
2022-09-15T12:10:22.554Z,3.78
2022-09-15T12:16:31.227Z,3.03
2022-09-15T12:19:51.986Z,2.95
2022-09-15T12:23:01.159Z,3.08
2022-09-15T12:26:14.718Z,3.15
2022-09-15T12:29:41.881Z,2.38
2022-09-15T12:32:45.740Z,3.20
2022-09-15T12:35:50.688Z,3.13
2022-09-15T12:38:53.875Z,2.60
2022-09-15T12:42:07.370Z,2.50
2022-09-15T12:45:24.115Z,3.25
2022-09-15T12:48:29.843Z,3.70
2022-09-15T12:51:33.570Z,3.30
2022-09-15T12:54:39.631Z,3.45
2022-09-15T12:57:43.070Z,3.75
2022-09-15T13:01:14.235Z,3.63
2022-09-15T13:04:49.726Z,4.47
2022-09-15T13:07:58.761Z,4.30
2022-09-15T13:11:05.639Z,4.10
2022-09-15T13:14:17.639Z,3.80
2022-09-15T13:17:26.482Z,4.43
2022-09-15T13:20:34.997Z,4.40
2022-09-15T13:23:42.031Z,4.53
2022-09-15T13:26:48.376Z,3.97
2022-09-15T13:30:11.353Z,4.40
2022-09-15T13:41:06.599Z,4.25
2022-09-15T13:44:29.418Z,3.15
2022-09-15T13:47:39.324Z,3.33
2022-09-15T13:50:55.703Z,2.70
2022-09-15T13:54:03.781Z,2.50
2022-09-15T13:57:07.155Z,2.67
2022-09-15T14:00:20.809Z,2.20
2022-09-15T14:03:36.814Z,2.10
2022-09-15T14:06:43.826Z,2.28
2022-09-15T14:09:47.850Z,1.97
2022-09-15T14:12:52.626Z,1.90
2022-09-15T14:16:01.097Z,2.08
2022-09-15T14:19:22.687Z,2.10
2022-09-15T14:22:30.068Z,1.75
2022-09-15T14:25:33.937Z,1.70
2022-09-15T14:28:37.161Z,1.80
2022-09-15T14:31:41.934Z,2.17
2022-09-15T14:37:58.009Z,2.08
2022-09-15T14:41:01.724Z,2.03
2022-09-15T14:48:01.208Z,2.00
2022-09-15T14:51:11.946Z,1.73
2022-09-15T14:54:20.786Z,1.90
2022-09-15T14:57:30.626Z,2.33
2022-09-15T15:00:38.458Z,2.40
2022-09-15T15:03:46.801Z,2.35
2022-09-15T15:06:57.955Z,2.42
2022-09-15T15:10:04.971Z,2.70
2022-09-15T15:13:12.817Z,2.13
2022-09-15T15:19:34.800Z,2.53
2022-09-15T15:22:39.814Z,2.88
2022-09-15T15:25:46.915Z,2.90
2022-09-15T15:28:50.198Z,2.65
2022-09-15T15:34:25.021Z,2.88
2022-09-15T15:37:30.821Z,2.50
2022-09-15T15:40:34.625Z,2.30
2022-09-15T15:43:38.172Z,2.13
2022-09-15T15:46:50.503Z,1.90
2022-09-15T15:50:12.811Z,1.88
2022-09-15T15:53:16.364Z,2.22
2022-09-15T15:56:25.479Z,1.90
2022-09-15T15:59:28.912Z,2.38
2022-09-15T16:02:32.036Z,1.90
2022-09-15T16:05:37.391Z,2.17
2022-09-15T16:08:43.741Z,2.20
2022-09-15T16:11:46.931Z,2.10
2022-09-15T16:14:50.396Z,2.15
2022-09-15T16:17:53.574Z,2.35
2022-09-15T16:20:57.984Z,1.80
2022-09-15T16:24:01.149Z,2.05
2022-09-15T16:27:06.287Z,2.15
2022-09-15T16:30:12.019Z,2.50
2022-09-15T16:33:16.134Z,2.40
2022-09-15T16:36:20.550Z,2.40
2022-09-15T16:39:23.769Z,2.78
2022-09-15T16:42:26.937Z,3.10
2022-09-15T16:45:38.055Z,2.58
2022-09-15T16:48:47.065Z,2.70
2022-09-15T16:51:51.611Z,2.35
2022-09-15T16:54:57.772Z,2.60
2022-09-15T16:58:00.967Z,2.72
2022-09-15T17:01:04.682Z,3.33
2022-09-15T17:04:13.664Z,2.65
2022-09-15T17:07:18.355Z,2.80
2022-09-15T17:10:21.994Z,2.58
2022-09-15T17:13:29.497Z,2.97
2022-09-15T17:16:33.819Z,2.50
2022-09-15T17:19:36.976Z,2.90
2022-09-15T17:22:41.671Z,3.28
2022-09-15T17:25:49.057Z,2.78
2022-09-15T17:28:52.506Z,3.20
2022-09-15T17:31:55.860Z,3.03
2022-09-15T17:34:59.102Z,2.90
2022-09-15T17:38:05.030Z,2.88
2022-09-15T17:41:08.346Z,2.95
2022-09-15T17:44:11.836Z,3.03
2022-09-15T17:47:14.927Z,2.90
2022-09-15T17:50:19.748Z,3.50
2022-09-15T17:53:26.649Z,3.28
2022-09-15T17:56:29.923Z,3.00
2022-09-15T17:59:33.201Z,3.22
2022-09-15T18:02:36.679Z,3.20
2022-09-15T18:05:39.839Z,3.55
2022-09-15T18:08:44.479Z,3.60
2022-09-15T18:11:47.578Z,3.80
2022-09-15T18:14:51.011Z,4.07
2022-09-15T18:17:56.823Z,3.42
2022-09-15T18:21:00.114Z,3.45
2022-09-15T18:24:05.103Z,4.20
2022-09-15T18:27:08.330Z,4.32
2022-09-15T18:30:12.898Z,4.55
2022-09-15T18:33:17.596Z,5.38
2022-09-15T18:36:20.752Z,4.75
2022-09-15T18:39:25.595Z,4.70
2022-09-15T18:42:31.793Z,5.35
2022-09-15T18:45:35.522Z,4.65
2022-09-15T18:48:38.716Z,4.50
2022-09-15T18:51:51.626Z,4.72
2022-09-15T18:54:56.402Z,4.80
2022-09-15T18:58:01.166Z,5.65
2022-09-15T19:01:04.805Z,5.15
2022-09-15T19:04:07.927Z,5.00
2022-09-15T19:07:12.220Z,5.35
2022-09-15T19:10:18.372Z,5.38
2022-09-15T19:13:21.507Z,4.97
2022-09-15T19:16:34.676Z,5.32
2022-09-15T19:19:46.269Z,5.57
2022-09-15T19:22:51.482Z,5.75
2022-09-15T19:25:55.911Z,5.60
2022-09-15T19:28:59.093Z,5.38
2022-09-15T19:32:02.871Z,5.05
2022-09-15T19:35:06.855Z,4.65
2022-09-15T19:38:10.143Z,5.13
2022-09-15T19:41:17.777Z,5.05
2022-09-15T19:44:20.871Z,6.22
2022-09-15T19:47:24.368Z,5.00
2022-09-15T19:50:27.510Z,5.32
2022-09-15T19:53:30.614Z,5.07
2022-09-15T19:56:35.448Z,4.38
2022-09-15T19:59:38.699Z,4.47
2022-09-15T20:02:41.868Z,5.28
2022-09-15T20:05:50.509Z,5.10
2022-09-15T20:08:54.676Z,4.25
2022-09-15T20:12:02.987Z,4.68
2022-09-15T20:15:07.188Z,5.28
2022-09-15T20:18:12.495Z,5.15
2022-09-15T20:21:32.644Z,5.57
2022-09-15T20:24:41.352Z,4.90
2022-09-15T20:27:47.650Z,4.75
2022-09-15T20:31:00.184Z,5.60
2022-09-15T20:34:03.383Z,5.30
2022-09-15T20:37:07.074Z,5.55
2022-09-15T20:40:10.514Z,5.03
2022-09-15T20:43:15.176Z,4.38
2022-09-15T20:46:20.002Z,4.55
2022-09-15T20:49:23.308Z,4.90
2022-09-15T20:52:29.492Z,5.90
2022-09-15T20:55:33.126Z,5.05
2022-09-15T20:58:38.456Z,5.50
2022-09-15T21:01:41.911Z,5.47
2022-09-15T21:04:44.980Z,5.50
2022-09-15T21:07:48.812Z,6.22
2022-09-15T21:10:53.644Z,5.88
2022-09-15T21:13:58.859Z,5.72
2022-09-15T21:17:02.106Z,5.03
2022-09-15T21:20:05.911Z,5.18
2022-09-15T21:23:09.023Z,6.10
2022-09-15T21:26:14.757Z,5.20
2022-09-15T21:29:19.211Z,5.70
2022-09-15T21:34:14.197Z,5.68
2022-09-15T21:37:17.297Z,5.72
2022-09-15T21:40:20.578Z,5.65
2022-09-15T21:43:23.786Z,6.32
2022-09-15T21:46:28.643Z,6.85
2022-09-15T21:49:33.594Z,6.10
2022-09-15T21:52:37.077Z,6.20
2022-09-15T21:55:40.237Z,6.90
2022-09-15T21:58:44.251Z,7.35
2022-09-15T22:01:48.565Z,7.93
2022-09-15T22:04:53.754Z,7.50
2022-09-15T22:08:00.463Z,7.50
2022-09-15T22:11:08.479Z,6.95
2022-09-15T22:14:14.243Z,6.65
2022-09-15T22:17:17.556Z,7.22
2022-09-15T22:20:22.423Z,6.30
2022-09-15T22:23:25.897Z,6.32
2022-09-15T22:26:32.432Z,6.20
2022-09-15T22:29:35.531Z,6.25
2022-09-15T22:32:39.141Z,7.03
2022-09-15T22:35:48.982Z,8.00
2022-09-15T22:38:52.637Z,6.72
2022-09-15T22:41:55.749Z,7.57
2022-09-15T22:44:59.259Z,6.60
2022-09-15T22:48:02.750Z,7.43
2022-09-15T22:51:07.448Z,6.82
2022-09-15T22:54:12.864Z,7.32
2022-09-15T22:57:15.975Z,7.03
2022-09-15T23:00:20.183Z,7.43
2022-09-15T23:03:23.301Z,7.55
2022-09-15T23:06:30.597Z,7.78
2022-09-15T23:09:34.260Z,7.88
2022-09-15T23:12:37.558Z,7.28
2022-09-15T23:15:40.710Z,8.52
2022-09-15T23:18:44.160Z,9.57
2022-09-15T23:21:48.970Z,9.38
2022-09-15T23:24:52.064Z,9.35
2022-09-15T23:27:55.217Z,7.70
2022-09-15T23:30:59.564Z,9.00
2022-09-15T23:34:02.750Z,9.52
2022-09-15T23:37:07.302Z,8.85
2022-09-15T23:40:11.248Z,10.90
2022-09-15T23:43:16.068Z,9.75
2022-09-15T23:46:19.135Z,10.57
2022-09-15T23:49:22.353Z,9.50
2022-09-15T23:52:26.814Z,10.48
2022-09-15T23:55:30.204Z,9.38
2022-09-15T23:58:33.318Z,10.93
